Time;durP1;ratioP1;P1;durP2;ratioP2;P2;SDS_P1;SDS_P2;PMS_P1;PMS_P2;Temp;Humidity;BMP_temperature;BMP_pressure;BME280_temperature;BME280_humidity;BME280_pressure;Samples;Min_cycle;Max_cycle;Signal;HPM_P1;HPM_P2
2023/01/12 00:01:11;;;;;;;10.67;7.33;;;6.40;99.90;;;;;;8298063;28;20183;-66
2023/01/12 00:05:14;;;;;;;8.60;6.40;;;6.30;99.90;;;;;;8296591;28;20203;-67
2023/01/12 00:09:14;;;;;;;9.57;6.67;;;6.30;99.90;;;;;;8301577;28;20281;-66
2023/01/12 00:13:15;;;;;;;9.50;6.93;;;6.20;99.90;;;;;;8300898;28;20195;-67
2023/01/12 00:17:18;;;;;;;9.53;6.50;;;6.20;99.90;;;;;;8298354;28;20182;-67
2023/01/12 00:21:18;;;;;;;9.37;6.83;;;6.20;99.90;;;;;;8299877;28;20183;-66
2023/01/12 00:25:19;;;;;;;7.97;5.93;;;6.20;99.90;;;;;;8300828;28;20214;-68
2023/01/12 00:29:20;;;;;;;8.17;5.43;;;6.10;99.90;;;;;;8301190;28;20286;-68
2023/01/12 00:33:21;;;;;;;10.13;6.10;;;6.10;99.90;;;;;;8304363;28;20189;-67
2023/01/12 00:37:23;;;;;;;8.13;5.77;;;6.10;99.90;;;;;;8295546;28;20194;-66
2023/01/12 00:45:49;;;;;;;13.23;7.60;;;5.90;99.90;;;;;;8306544;28;20201;-66
2023/01/12 00:49:50;;;;;;;11.73;7.97;;;5.90;99.90;;;;;;8296474;28;20191;-66
2023/01/12 00:53:50;;;;;;;13.93;9.50;;;5.80;99.90;;;;;;8295094;28;20194;-72
2023/01/12 00:57:52;;;;;;;13.73;9.77;;;5.70;99.90;;;;;;8303833;28;20202;-66
2023/01/12 01:01:53;;;;;;;14.00;10.10;;;5.70;99.90;;;;;;8304783;28;20195;-66
2023/01/12 01:06:04;;;;;;;11.30;8.53;;;5.60;99.90;;;;;;8302522;28;20265;-66
2023/01/12 01:10:05;;;;;;;13.37;8.57;;;5.50;99.90;;;;;;8290974;28;20820;-66
2023/01/12 01:14:07;;;;;;;15.17;9.13;;;5.50;99.90;;;;;;8293247;28;20321;-66
2023/01/12 01:18:07;;;;;;;12.07;8.03;;;5.50;99.90;;;;;;8292110;28;20198;-66
2023/01/12 01:22:08;;;;;;;12.57;8.17;;;5.40;99.90;;;;;;8294762;28;20309;-66
2023/01/12 01:26:12;;;;;;;11.63;6.83;;;5.40;99.90;;;;;;8294143;28;20186;-69
2023/01/12 01:30:13;;;;;;;13.63;8.20;;;5.30;99.90;;;;;;8299033;28;20179;-67
2023/01/12 01:34:14;;;;;;;13.87;9.00;;;5.20;99.90;;;;;;8294587;28;20233;-66
2023/01/12 01:38:16;;;;;;;13.33;8.83;;;5.10;99.90;;;;;;8297966;28;20222;-66
2023/01/12 01:42:29;;;;;;;11.13;7.57;;;5.10;99.90;;;;;;8296661;28;20229;-66
2023/01/12 01:46:33;;;;;;;15.20;7.63;;;5.00;99.90;;;;;;8296609;28;20183;-66
2023/01/12 01:50:38;;;;;;;12.03;7.13;;;5.00;99.90;;;;;;8290538;28;20272;-67
2023/01/12 01:54:45;;;;;;;9.23;5.63;;;5.00;99.90;;;;;;8296774;28;20198;-67
2023/01/12 01:59:01;;;;;;;10.80;5.53;;;4.90;99.90;;;;;;8289461;28;20190;-66
2023/01/12 02:03:05;;;;;;;9.90;4.67;;;4.90;99.90;;;;;;8291536;28;20208;-67
2023/01/12 02:07:07;;;;;;;9.53;4.70;;;4.90;99.90;;;;;;8289191;28;20499;-67
2023/01/12 02:16:19;;;;;;;9.00;5.17;;;4.80;99.90;;;;;;8294649;28;20183;-66
2023/01/12 02:20:05;;;;;;;9.13;4.57;;;4.70;99.90;;;;;;8297389;28;20218;-67
2023/01/12 02:24:39;;;;;;;9.50;4.43;;;4.60;99.90;;;;;;8295976;28;20237;-67
2023/01/12 02:29:15;;;;;;;8.27;4.90;;;4.60;99.90;;;;;;8293272;28;20188;-66
2023/01/12 02:33:58;;;;;;;8.10;4.60;;;4.50;99.90;;;;;;8294071;28;20421;-67
2023/01/12 02:38:19;;;;;;;11.70;4.57;;;4.40;99.90;;;;;;8290599;28;20202;-67
2023/01/12 02:42:49;;;;;;;6.63;4.20;;;4.40;99.90;;;;;;8290836;28;20206;-67
2023/01/12 02:46:50;;;;;;;8.73;4.53;;;4.30;99.90;;;;;;8285581;28;20194;-66
2023/01/12 02:51:04;;;;;;;14.60;5.03;;;4.20;99.90;;;;;;8295204;28;20190;-68
2023/01/12 02:55:06;;;;;;;9.70;4.43;;;4.30;99.90;;;;;;8288675;28;20222;-66
2023/01/12 02:59:15;;;;;;;8.20;4.00;;;4.20;99.90;;;;;;8289274;28;20221;-66
2023/01/12 03:03:18;;;;;;;9.70;4.20;;;4.20;99.90;;;;;;8288905;28;20225;-67
2023/01/12 03:07:52;;;;;;;9.40;4.30;;;4.10;99.90;;;;;;8287514;28;20224;-67
2023/01/12 03:11:58;;;;;;;10.80;4.13;;;4.00;99.90;;;;;;8289009;28;20186;-67
2023/01/12 03:16:02;;;;;;;6.83;3.93;;;3.90;99.90;;;;;;8292822;28;20234;-67
2023/01/12 03:20:38;;;;;;;5.83;3.97;;;3.80;99.90;;;;;;8293271;28;20185;-68
2023/01/12 03:24:47;;;;;;;7.27;3.23;;;3.80;99.90;;;;;;8292467;28;20238;-68
2023/01/12 03:28:55;;;;;;;5.87;3.13;;;3.70;99.90;;;;;;8292682;28;20229;-66
2023/01/12 03:32:56;;;;;;;4.70;3.70;;;3.60;99.90;;;;;;8289436;28;20183;-66
2023/01/12 03:37:29;;;;;;;8.97;4.20;;;3.60;99.90;;;;;;8289650;28;20287;-67
2023/01/12 03:41:53;;;;;;;8.60;3.97;;;3.50;99.90;;;;;;8291379;28;20229;-66
2023/01/12 03:46:01;;;;;;;12.63;4.27;;;3.50;99.90;;;;;;8293380;28;20192;-67
2023/01/12 03:50:04;;;;;;;5.87;3.80;;;3.40;99.90;;;;;;8315283;28;20213;-67
2023/01/12 03:54:09;;;;;;;6.90;3.60;;;3.30;99.90;;;;;;8297946;28;20550;-66
2023/01/12 03:58:10;;;;;;;9.37;3.33;;;3.30;99.90;;;;;;8299374;28;20188;-67
2023/01/12 04:02:12;;;;;;;7.03;4.13;;;3.20;99.90;;;;;;8296834;28;20230;-67
2023/01/12 04:06:12;;;;;;;7.33;3.60;;;3.20;99.90;;;;;;8297455;28;20210;-67
2023/01/12 04:10:13;;;;;;;5.83;3.00;;;3.20;99.90;;;;;;8298359;28;20184;-66
2023/01/12 04:14:14;;;;;;;6.47;3.00;;;3.20;99.90;;;;;;8296293;28;20196;-67
2023/01/12 04:18:15;;;;;;;6.33;2.83;;;3.20;99.90;;;;;;8296346;28;20184;-67
2023/01/12 04:26:35;;;;;;;4.50;2.47;;;3.30;99.90;;;;;;8304076;28;20198;-67
2023/01/12 04:30:36;;;;;;;4.60;2.20;;;3.30;99.90;;;;;;8303178;28;20272;-68
2023/01/12 04:34:38;;;;;;;3.47;2.47;;;3.20;99.90;;;;;;8300446;28;20201;-67
2023/01/12 04:38:39;;;;;;;7.90;2.60;;;3.20;99.90;;;;;;8296737;28;20201;-66
2023/01/12 04:43:09;;;;;;;6.57;2.83;;;3.30;99.90;;;;;;8294022;28;20294;-67
2023/01/12 04:47:10;;;;;;;5.10;2.03;;;3.30;99.90;;;;;;8297941;28;20188;-67
2023/01/12 04:51:11;;;;;;;4.03;2.10;;;3.30;99.90;;;;;;8292463;28;20258;-68
2023/01/12 04:55:12;;;;;;;3.90;2.40;;;3.30;99.90;;;;;;8298139;28;20186;-66
2023/01/12 04:59:13;;;;;;;3.87;2.33;;;3.20;99.90;;;;;;8299279;28;20183;-66
2023/01/12 05:03:14;;;;;;;5.37;2.00;;;3.20;99.90;;;;;;8300566;28;20262;-67
2023/01/12 05:07:16;;;;;;;5.37;2.03;;;3.20;99.90;;;;;;8293211;28;20214;-66
2023/01/12 05:11:17;;;;;;;5.67;2.27;;;3.30;99.90;;;;;;8296200;28;21074;-67
2023/01/12 05:15:17;;;;;;;6.43;2.50;;;3.30;99.90;;;;;;8297413;28;20189;-67
2023/01/12 05:19:18;;;;;;;6.17;2.40;;;3.40;99.90;;;;;;8296680;28;20187;-67
2023/01/12 05:23:19;;;;;;;5.10;2.30;;;3.50;99.90;;;;;;8290159;28;20199;-67
2023/01/12 05:27:20;;;;;;;6.83;2.50;;;3.60;99.90;;;;;;8291425;28;20248;-68
2023/01/12 05:31:21;;;;;;;6.83;1.97;;;3.70;99.90;;;;;;8290810;28;20185;-67
2023/01/12 05:35:21;;;;;;;7.20;2.73;;;3.80;99.90;;;;;;8296181;28;20210;-66
2023/01/12 05:39:22;;;;;;;5.47;2.33;;;3.90;99.90;;;;;;8292113;28;20199;-67
2023/01/12 05:47:42;;;;;;;4.73;2.30;;;3.90;99.90;;;;;;8290559;28;20214;-67
2023/01/12 05:51:43;;;;;;;5.30;2.27;;;3.90;99.90;;;;;;8291126;28;20216;-66
2023/01/12 05:55:44;;;;;;;3.57;2.13;;;4.00;99.90;;;;;;8290253;28;20304;-67
2023/01/12 05:59:45;;;;;;;4.60;2.23;;;4.10;99.90;;;;;;8289071;28;20247;-70
2023/01/12 06:03:51;;;;;;;4.03;2.07;;;4.10;99.90;;;;;;8295573;28;20277;-70
2023/01/12 06:07:52;;;;;;;4.80;2.13;;;4.20;99.90;;;;;;8313804;28;20191;-70
2023/01/12 06:16:13;;;;;;;3.83;2.23;;;4.30;99.90;;;;;;8295306;28;20237;-70
2023/01/12 06:20:15;;;;;;;6.50;2.40;;;4.20;99.90;;;;;;8312709;28;20232;-72
2023/01/12 06:24:16;;;;;;;4.17;2.37;;;4.10;99.90;;;;;;8302440;28;20305;-71
2023/01/12 06:28:17;;;;;;;4.87;2.00;;;4.10;99.90;;;;;;8301137;28;20190;-71
2023/01/12 06:32:18;;;;;;;1.77;1.50;;;4.10;99.90;;;;;;8296750;28;20296;-72
2023/01/12 06:36:19;;;;;;;5.10;2.53;;;4.00;99.90;;;;;;8293280;28;20233;-70
2023/01/12 06:40:20;;;;;;;5.27;2.03;;;4.00;99.90;;;;;;8301515;28;20251;-70
2023/01/12 06:44:21;;;;;;;4.90;2.60;;;3.90;99.90;;;;;;8304272;28;20227;-71
2023/01/12 06:48:24;;;;;;;8.37;3.10;;;3.90;99.90;;;;;;8300107;28;20189;-70
2023/01/12 06:52:28;;;;;;;7.73;2.80;;;4.00;99.90;;;;;;8300884;28;20389;-71
2023/01/12 06:56:29;;;;;;;4.83;2.43;;;4.00;99.90;;;;;;8299837;28;20220;-72
2023/01/12 07:00:31;;;;;;;15.20;3.60;;;4.10;99.90;;;;;;8296289;28;20197;-72
2023/01/12 07:04:31;;;;;;;6.43;3.40;;;4.30;99.90;;;;;;8298147;28;20296;-71
2023/01/12 07:08:32;;;;;;;6.10;3.40;;;4.50;99.90;;;;;;8295625;28;20202;-70
2023/01/12 07:12:33;;;;;;;8.63;3.30;;;4.70;99.90;;;;;;8313908;28;20201;-70
2023/01/12 07:16:34;;;;;;;5.17;3.00;;;5.00;99.90;;;;;;8313561;28;20217;-71
2023/01/12 07:20:35;;;;;;;3.70;2.53;;;5.30;99.90;;;;;;8305918;28;20261;-70
2023/01/12 07:24:36;;;;;;;5.83;2.20;;;5.60;99.90;;;;;;8309430;28;20241;-71
2023/01/12 07:28:37;;;;;;;5.13;2.17;;;5.80;99.90;;;;;;8305950;28;20187;-70
2023/01/12 07:32:38;;;;;;;8.33;2.03;;;6.00;99.90;;;;;;8304277;28;20203;-71
2023/01/12 07:36:39;;;;;;;1.90;1.20;;;6.20;99.90;;;;;;8302050;28;20213;-71
2023/01/12 07:40:40;;;;;;;5.07;1.50;;;6.30;99.90;;;;;;8299201;28;20191;-71
2023/01/12 07:44:41;;;;;;;6.13;1.70;;;6.40;99.90;;;;;;8300540;28;20613;-72
2023/01/12 07:48:42;;;;;;;2.63;1.43;;;6.60;99.90;;;;;;8299754;28;20206;-71
2023/01/12 07:52:43;;;;;;;3.80;1.73;;;6.70;99.90;;;;;;8303392;28;20233;-71
2023/01/12 07:56:44;;;;;;;4.27;2.20;;;6.80;99.90;;;;;;8303201;28;20293;-71
2023/01/12 08:00:44;;;;;;;6.90;1.87;;;6.90;99.90;;;;;;8297731;28;20197;-71
2023/01/12 08:04:45;;;;;;;6.47;2.20;;;7.00;99.90;;;;;;8296423;28;20217;-70
2023/01/12 08:08:46;;;;;;;6.53;1.83;;;7.10;99.90;;;;;;8299750;28;20306;-71
2023/01/12 08:12:50;;;;;;;3.60;1.70;;;7.20;99.90;;;;;;8301743;28;21720;-70
2023/01/12 08:16:53;;;;;;;7.20;1.47;;;7.30;99.90;;;;;;8294819;28;20182;-71
2023/01/12 08:20:58;;;;;;;5.23;1.40;;;7.40;99.90;;;;;;8297679;28;20187;-70
2023/01/12 08:25:05;;;;;;;5.50;1.47;;;7.40;99.90;;;;;;8302454;28;20356;-70
2023/01/12 08:29:40;;;;;;;7.83;2.23;;;7.40;99.90;;;;;;8298394;28;20182;-70
2023/01/12 08:33:42;;;;;;;6.57;1.43;;;7.40;99.90;;;;;;8275159;28;20211;-69
2023/01/12 08:37:43;;;;;;;6.93;1.70;;;7.50;99.90;;;;;;8302699;28;20216;-69
2023/01/12 08:41:43;;;;;;;4.53;1.80;;;7.50;99.90;;;;;;8302965;28;20191;-70
2023/01/12 08:45:44;;;;;;;3.50;1.43;;;7.60;99.90;;;;;;8298588;28;20245;-70
2023/01/12 08:49:45;;;;;;;3.83;1.40;;;7.90;99.90;;;;;;8304243;28;20183;-70
2023/01/12 08:53:47;;;;;;;4.07;1.33;;;8.10;99.90;;;;;;8297113;28;20199;-72
2023/01/12 08:57:48;;;;;;;4.13;1.70;;;8.30;99.90;;;;;;8300461;28;20186;-71
2023/01/12 09:01:49;;;;;;;5.30;1.40;;;8.50;95.30;;;;;;8295740;28;20187;-71
2023/01/12 09:05:50;;;;;;;4.87;1.93;;;8.70;41.60;;;;;;8298882;28;20229;-72
2023/01/12 09:09:51;;;;;;;6.63;2.00;;;9.00;30.60;;;;;;8300969;28;20182;-72
2023/01/12 09:13:51;;;;;;;8.50;2.43;;;9.10;16.70;;;;;;8294774;28;20183;-71
2023/01/12 09:17:53;;;;;;;5.73;2.90;;;9.20;1.00;;;;;;8297619;28;20190;-71
2023/01/12 09:21:54;;;;;;;5.37;1.87;;;9.20;4.90;;;;;;8298788;28;20264;-71
2023/01/12 09:25:55;;;;;;;4.30;1.70;;;9.20;6.20;;;;;;8295592;28;20207;-72
2023/01/12 09:29:56;;;;;;;3.13;1.20;;;9.20;1.00;;;;;;8295808;28;20186;-71
2023/01/12 09:33:57;;;;;;;5.43;1.50;;;9.10;6.90;;;;;;8294517;28;20207;-71
2023/01/12 09:37:58;;;;;;;4.20;1.53;;;9.20;14.20;;;;;;8302981;28;20202;-70
2023/01/12 09:51:04;;;;;;;5.17;1.40;;;9.10;7.40;;;;;;8298285;28;20245;-72
2023/01/12 09:55:11;;;;;;;4.87;1.30;;;9.20;3.70;;;;;;8298259;28;20269;-72
2023/01/12 09:59:14;;;;;;;6.50;1.63;;;9.30;3.00;;;;;;8300026;28;20188;-72
2023/01/12 10:03:34;;;;;;;4.43;1.40;;;9.50;1.00;;;;;;8296691;28;20271;-70
2023/01/12 10:07:35;;;;;;;3.20;1.50;;;9.80;1.00;;;;;;8291849;28;20192;-72
2023/01/12 10:12:23;;;;;;;4.67;2.00;;;10.20;1.00;;;;;;8299499;28;20191;-70
2023/01/12 10:16:46;;;;;;;6.97;1.53;;;10.50;1.00;;;;;;8276758;28;20197;-71
2023/01/12 10:20:49;;;;;;;3.93;1.30;;;10.60;1.00;;;;;;8300215;28;20196;-71
2023/01/12 10:24:49;;;;;;;5.33;1.30;;;10.50;1.00;;;;;;8300029;28;20265;-71
2023/01/12 10:28:53;;;;;;;6.47;1.33;;;10.50;1.00;;;;;;8298124;28;20198;-72
2023/01/12 10:32:54;;;;;;;3.83;1.27;;;10.50;1.00;;;;;;8298799;28;20189;-71
2023/01/12 10:37:06;;;;;;;4.50;1.40;;;10.50;1.00;;;;;;8299706;28;20210;-69
2023/01/12 10:41:21;;;;;;;4.40;1.23;;;10.40;1.00;;;;;;8295169;28;20214;-72
2023/01/12 10:45:23;;;;;;;4.90;1.33;;;10.40;1.00;;;;;;8300144;28;20258;-72
2023/01/12 10:49:25;;;;;;;2.73;1.03;;;10.30;1.00;;;;;;8293820;28;20209;-72
2023/01/12 10:53:41;;;;;;;2.70;1.30;;;10.20;1.00;;;;;;8298872;28;20197;-73
2023/01/12 10:57:43;;;;;;;6.43;1.30;;;10.20;1.00;;;;;;8295375;28;20193;-71
2023/01/12 11:02:12;;;;;;;4.20;1.23;;;10.20;1.00;;;;;;8297370;28;20248;-70
2023/01/12 11:06:33;;;;;;;5.57;1.20;;;10.20;1.00;;;;;;8301494;28;20224;-73
2023/01/12 11:10:36;;;;;;;3.10;0.90;;;10.20;1.00;;;;;;8297573;28;20184;-70
2023/01/12 11:14:37;;;;;;;4.60;1.40;;;10.30;1.00;;;;;;8303274;28;20481;-70
2023/01/12 11:18:47;;;;;;;3.50;1.00;;;10.30;1.00;;;;;;8291816;28;20232;-71
2023/01/12 11:22:52;;;;;;;4.30;1.10;;;10.30;1.00;;;;;;8305732;28;20303;-73
2023/01/12 11:27:14;;;;;;;5.27;1.27;;;10.30;1.00;;;;;;8299731;28;20486;-71
2023/01/12 11:31:46;;;;;;;3.70;0.77;;;10.20;1.00;;;;;;8304471;28;20192;-70
2023/01/12 11:36:07;;;;;;;2.90;1.13;;;10.20;1.00;;;;;;8294076;28;20209;-73
2023/01/12 11:40:32;;;;;;;4.23;1.10;;;10.20;1.00;;;;;;8297636;28;20196;-71
2023/01/12 11:44:52;;;;;;;3.10;1.03;;;10.20;1.00;;;;;;8297351;28;20326;-70
2023/01/12 11:49:09;;;;;;;3.63;1.43;;;10.20;1.00;;;;;;8310652;28;20267;-73
2023/01/12 11:53:20;;;;;;;2.27;1.30;;;10.30;1.00;;;;;;8303664;28;20188;-71
2023/01/12 11:57:40;;;;;;;2.20;1.13;;;10.20;1.00;;;;;;8297764;28;20220;-72
2023/01/12 12:02:20;;;;;;;2.90;1.07;;;10.20;1.00;;;;;;8299627;28;20520;-71
2023/01/12 12:06:36;;;;;;;3.13;1.00;;;10.30;1.00;;;;;;8305365;28;20197;-71
2023/01/12 12:10:46;;;;;;;4.43;1.40;;;10.30;1.00;;;;;;8286806;28;20189;-72
2023/01/12 12:15:16;;;;;;;2.83;1.17;;;10.30;1.00;;;;;;8299918;28;20212;-72
2023/01/12 12:19:27;;;;;;;2.53;1.17;;;10.30;1.00;;;;;;8290474;28;20256;-72
2023/01/12 12:23:51;;;;;;;5.47;1.13;;;10.20;1.00;;;;;;8314216;28;20267;-74
2023/01/12 12:28:28;;;;;;;3.03;1.20;;;10.20;1.00;;;;;;8300039;28;20193;-72
2023/01/12 12:33:03;;;;;;;3.20;1.30;;;10.20;1.00;;;;;;8282776;28;20254;-71
2023/01/12 12:37:17;;;;;;;3.87;1.40;;;10.10;1.00;;;;;;8303120;28;20234;-72
2023/01/12 12:46:47;;;;;;;3.47;1.30;;;9.90;1.00;;;;;;8296975;28;20293;-71
2023/01/12 12:51:01;;;;;;;2.50;0.80;;;9.80;1.00;;;;;;8286716;28;20365;-74
2023/01/12 12:55:03;;;;;;;2.73;1.10;;;9.80;1.00;;;;;;8303095;28;20192;-74
2023/01/12 12:59:04;;;;;;;5.07;1.63;;;9.80;1.00;;;;;;8294844;28;20189;-71
2023/01/12 13:03:06;;;;;;;3.90;1.50;;;9.80;1.00;;;;;;8300416;28;20208;-72
2023/01/12 13:07:13;;;;;;;3.13;1.40;;;9.80;1.00;;;;;;8290755;28;20278;-73
2023/01/12 13:11:14;;;;;;;3.00;1.13;;;9.70;1.00;;;;;;8273683;28;20192;-71
2023/01/12 13:15:31;;;;;;;5.27;1.63;;;9.60;1.00;;;;;;8300718;28;20190;-72
2023/01/12 13:19:35;;;;;;;2.97;1.20;;;9.60;1.00;;;;;;8290944;28;20219;-74
2023/01/12 13:23:46;;;;;;;2.57;1.00;;;9.60;1.00;;;;;;8289482;28;20668;-73
2023/01/12 13:27:59;;;;;;;4.33;1.73;;;9.70;1.00;;;;;;8296761;28;20788;-73
2023/01/12 13:32:54;;;;;;;3.03;1.30;;;9.70;1.00;;;;;;8315907;28;20177;-72
2023/01/12 13:37:28;;;;;;;2.93;1.03;;;9.80;1.00;;;;;;8266516;28;20333;-72
2023/01/12 13:46:15;;;;;;;2.33;1.00;;;9.80;1.00;;;;;;8303444;28;20222;-71
2023/01/12 13:50:19;;;;;;;3.17;1.20;;;9.80;1.00;;;;;;8311437;28;20184;-72
2023/01/12 13:54:20;;;;;;;3.57;1.20;;;9.70;1.00;;;;;;8298174;28;20188;-74
2023/01/12 13:58:21;;;;;;;3.73;1.20;;;9.70;1.00;;;;;;8281727;28;20275;-72
2023/01/12 14:02:22;;;;;;;3.30;1.23;;;9.70;1.00;;;;;;8296307;28;20206;-71
2023/01/12 14:06:37;;;;;;;3.83;1.50;;;9.60;1.00;;;;;;8293941;28;20195;-70
2023/01/12 14:10:48;;;;;;;3.83;1.40;;;9.60;1.00;;;;;;8293943;28;20495;-72
2023/01/12 14:19:33;;;;;;;2.20;1.03;;;9.70;1.00;;;;;;8296948;28;21070;-72
2023/01/12 14:23:34;;;;;;;3.00;1.17;;;9.60;1.00;;;;;;8292422;28;20207;-72
2023/01/12 14:27:35;;;;;;;3.73;1.20;;;9.50;1.00;;;;;;8300623;28;20186;-72
2023/01/12 14:32:03;;;;;;;2.87;1.40;;;9.50;1.00;;;;;;8287772;28;20197;-72
2023/01/12 14:36:10;;;;;;;2.67;1.20;;;9.40;1.00;;;;;;8293947;28;20228;-71
2023/01/12 14:40:22;;;;;;;4.53;1.10;;;9.30;1.00;;;;;;8290141;28;20193;-73
2023/01/12 14:48:56;;;;;;;1.87;1.10;;;9.20;1.00;;;;;;8298560;28;20599;-70
2023/01/12 14:52:57;;;;;;;1.90;0.90;;;9.10;1.00;;;;;;8297017;28;20195;-71
2023/01/12 14:57:28;;;;;;;2.83;1.17;;;9.10;1.00;;;;;;8301190;28;20191;-71
2023/01/12 15:01:33;;;;;;;2.73;0.70;;;9.00;2.90;;;;;;8283597;28;20191;-72
2023/01/12 15:05:36;;;;;;;2.53;0.87;;;9.00;9.50;;;;;;8288655;28;20219;-73
2023/01/12 15:10:10;;;;;;;1.93;0.77;;;8.80;26.80;;;;;;8291745;28;20223;-70
2023/01/12 15:14:21;;;;;;;1.70;0.80;;;8.80;31.60;;;;;;8285442;28;20299;-71
2023/01/12 15:27:01;;;;;;;1.93;0.93;;;8.60;46.60;;;;;;8290596;28;20550;-73
2023/01/12 15:31:02;;;;;;;3.53;1.20;;;8.60;68.60;;;;;;8296847;28;20210;-74
2023/01/12 15:35:24;;;;;;;4.70;1.03;;;8.60;80.30;;;;;;8298142;28;20214;-73
2023/01/12 15:39:25;;;;;;;1.60;1.00;;;8.50;87.20;;;;;;8307869;28;20213;-67
2023/01/12 15:43:25;;;;;;;2.87;1.37;;;8.50;81.90;;;;;;8299619;28;20217;-67
2023/01/12 15:47:27;;;;;;;2.10;1.30;;;8.50;82.40;;;;;;8290089;28;20217;-68
2023/01/12 15:51:28;;;;;;;3.27;1.07;;;8.50;91.80;;;;;;8295483;28;20184;-67
2023/01/12 15:55:30;;;;;;;2.17;1.00;;;8.50;92.90;;;;;;8298252;28;20258;-67
2023/01/12 15:59:31;;;;;;;2.70;1.33;;;8.50;92.20;;;;;;8295248;28;20186;-67
2023/01/12 16:03:32;;;;;;;2.73;1.17;;;8.50;93.50;;;;;;8300773;28;20219;-68
2023/01/12 16:07:32;;;;;;;3.13;1.33;;;8.50;99.90;;;;;;8299885;28;20231;-67
2023/01/12 16:11:33;;;;;;;4.20;1.33;;;8.50;99.90;;;;;;8300991;28;20187;-68
2023/01/12 16:15:34;;;;;;;2.37;1.40;;;8.50;99.90;;;;;;8302099;28;20602;-67
2023/01/12 16:19:40;;;;;;;1.97;1.10;;;8.50;99.90;;;;;;8307699;28;20289;-68
2023/01/12 16:23:41;;;;;;;1.77;1.00;;;8.50;97.80;;;;;;8297349;28;20483;-67
2023/01/12 16:27:42;;;;;;;4.33;1.57;;;8.60;95.60;;;;;;8300246;28;20180;-67
2023/01/12 16:31:43;;;;;;;3.17;1.53;;;8.60;99.20;;;;;;8300158;28;20275;-68
2023/01/12 16:35:44;;;;;;;4.23;1.60;;;8.60;97.10;;;;;;8298108;28;20202;-68
2023/01/12 16:39:45;;;;;;;3.80;1.07;;;8.60;95.00;;;;;;8299303;28;20203;-67
2023/01/12 16:43:46;;;;;;;2.20;1.13;;;8.60;94.10;;;;;;8291146;28;20217;-67
2023/01/12 16:47:46;;;;;;;2.07;1.27;;;8.60;93.30;;;;;;8294673;28;20289;-67
2023/01/12 16:51:47;;;;;;;3.23;1.53;;;8.60;96.10;;;;;;8292114;28;20191;-67
2023/01/12 16:55:48;;;;;;;2.00;1.30;;;8.60;99.90;;;;;;8297027;28;20186;-67
2023/01/12 16:59:49;;;;;;;2.50;1.10;;;8.60;99.90;;;;;;8290919;28;20190;-67
2023/01/12 17:03:52;;;;;;;2.03;1.00;;;8.70;99.90;;;;;;8286561;28;20251;-67
2023/01/12 17:07:53;;;;;;;3.00;1.13;;;8.70;99.90;;;;;;8296717;28;20197;-67
2023/01/12 17:11:54;;;;;;;2.63;1.27;;;8.70;99.90;;;;;;8301955;28;20186;-68
2023/01/12 17:15:55;;;;;;;3.33;1.60;;;8.60;99.90;;;;;;8294432;28;20221;-70
2023/01/12 17:19:55;;;;;;;3.27;1.30;;;8.60;99.90;;;;;;8301272;28;20186;-68
2023/01/12 17:23:56;;;;;;;2.30;1.33;;;8.60;99.90;;;;;;8293274;28;20218;-69
2023/01/12 17:27:57;;;;;;;1.73;1.20;;;8.50;99.90;;;;;;8291247;28;21645;-67
2023/01/12 17:32:05;;;;;;;2.40;1.60;;;8.50;99.90;;;;;;8288269;28;20205;-69
2023/01/12 17:36:07;;;;;;;2.53;1.67;;;8.40;99.90;;;;;;8291303;28;20464;-67
2023/01/12 17:40:09;;;;;;;4.13;2.07;;;8.40;99.90;;;;;;8295585;28;20201;-68
2023/01/12 17:44:10;;;;;;;3.90;1.63;;;8.40;99.90;;;;;;8286383;28;20214;-65
2023/01/12 17:48:11;;;;;;;2.77;1.50;;;8.40;99.90;;;;;;8287458;28;20186;-67
2023/01/12 17:52:13;;;;;;;2.40;1.50;;;8.40;99.90;;;;;;8293246;28;20198;-70
2023/01/12 17:56:15;;;;;;;2.30;1.23;;;8.40;99.90;;;;;;8300402;28;20304;-68
2023/01/12 18:00:16;;;;;;;3.60;2.13;;;8.30;99.90;;;;;;8299122;28;20219;-68
2023/01/12 18:04:18;;;;;;;3.07;1.70;;;8.30;99.90;;;;;;8294332;28;20206;-68
2023/01/12 18:08:20;;;;;;;2.77;1.30;;;8.20;99.90;;;;;;8298178;28;20195;-67
2023/01/12 18:12:23;;;;;;;3.00;1.53;;;8.20;1.00;;;;;;8296793;28;20278;-67
2023/01/12 18:16:24;;;;;;;3.83;1.70;;;8.20;1.00;;;;;;8290176;28;20205;-68
2023/01/12 18:20:25;;;;;;;3.37;1.80;;;8.20;1.00;;;;;;8290861;28;20226;-66
2023/01/12 18:24:26;;;;;;;2.97;1.40;;;8.20;1.00;;;;;;8291844;28;20430;-68
2023/01/12 18:28:26;;;;;;;2.93;1.50;;;8.20;1.00;;;;;;8291876;28;20193;-68
2023/01/12 18:32:27;;;;;;;2.87;1.70;;;8.10;1.00;;;;;;8299421;28;20218;-67
2023/01/12 18:36:28;;;;;;;2.87;1.80;;;8.10;1.00;;;;;;8297335;28;20198;-68
2023/01/12 18:40:30;;;;;;;2.87;1.80;;;8.10;1.00;;;;;;8300202;28;20190;-68
2023/01/12 18:44:31;;;;;;;2.57;1.60;;;8.20;1.00;;;;;;8297033;28;20226;-68
2023/01/12 18:48:32;;;;;;;3.30;2.10;;;8.30;1.00;;;;;;8297968;28;20255;-68
2023/01/12 18:56:53;;;;;;;3.57;1.97;;;8.30;99.90;;;;;;8297181;28;20192;-67
2023/01/12 19:00:59;;;;;;;2.80;1.67;;;8.30;99.90;;;;;;8298884;28;20226;-66
2023/01/12 19:05:20;;;;;;;3.10;1.90;;;8.20;1.00;;;;;;8296069;28;20228;-67
2023/01/12 19:09:33;;;;;;;3.37;1.90;;;8.20;1.00;;;;;;8294422;28;20305;-67
2023/01/12 19:17:53;;;;;;;3.03;2.10;;;8.10;1.00;;;;;;8295176;28;20304;-69
2023/01/12 19:30:42;;;;;;;3.43;1.70;;;8.00;1.00;;;;;;8296160;28;20301;-66
2023/01/12 19:34:43;;;;;;;3.23;1.60;;;7.90;1.00;;;;;;8288645;28;20245;-66
2023/01/12 19:38:47;;;;;;;2.13;1.47;;;7.90;1.00;;;;;;8293986;28;20201;-66
2023/01/12 19:47:07;;;;;;;2.70;1.30;;;8.10;1.00;;;;;;8290730;28;20275;-66
2023/01/12 19:51:09;;;;;;;4.20;1.80;;;8.20;1.00;;;;;;8294643;28;20179;-67
2023/01/12 19:55:12;;;;;;;2.50;1.67;;;8.30;99.90;;;;;;8299780;28;20950;-67
2023/01/12 19:59:13;;;;;;;2.83;1.70;;;8.40;99.90;;;;;;8297568;28;20191;-66
2023/01/12 20:03:17;;;;;;;2.57;1.40;;;8.40;99.90;;;;;;8300906;28;20369;-67
2023/01/12 20:07:18;;;;;;;4.40;1.60;;;8.40;99.90;;;;;;8294618;28;20262;-68
2023/01/12 20:11:19;;;;;;;2.93;1.90;;;8.50;99.90;;;;;;8297556;28;20363;-67
2023/01/12 20:15:20;;;;;;;3.40;1.67;;;8.50;99.90;;;;;;8297024;28;20185;-67
2023/01/12 20:19:21;;;;;;;2.53;1.60;;;8.60;99.90;;;;;;8302129;28;20179;-68
2023/01/12 20:23:22;;;;;;;3.00;1.80;;;8.70;99.90;;;;;;8296986;28;20202;-68
2023/01/12 20:27:23;;;;;;;4.17;1.70;;;8.60;99.90;;;;;;8303406;28;20183;-67
2023/01/12 20:31:23;;;;;;;4.03;1.90;;;8.60;99.90;;;;;;8295681;28;20209;-68
2023/01/12 20:35:26;;;;;;;2.93;1.80;;;8.70;99.90;;;;;;8294776;28;20350;-68
2023/01/12 20:39:28;;;;;;;3.23;1.87;;;8.70;99.90;;;;;;8300102;28;20289;-66
2023/01/12 20:43:29;;;;;;;4.90;2.40;;;8.70;99.90;;;;;;8294663;28;20202;-66
2023/01/12 20:47:31;;;;;;;3.70;1.87;;;8.70;99.90;;;;;;8293718;28;20261;-67
2023/01/12 20:51:32;;;;;;;3.90;1.73;;;8.70;99.90;;;;;;8293239;28;20218;-67
2023/01/12 20:55:32;;;;;;;4.30;1.70;;;8.70;99.90;;;;;;8291527;28;20188;-67
2023/01/12 20:59:33;;;;;;;1.90;1.23;;;8.80;99.90;;;;;;8294729;28;20195;-67
2023/01/12 21:03:34;;;;;;;3.67;1.50;;;8.80;99.90;;;;;;8296108;28;20214;-68
2023/01/12 21:07:35;;;;;;;2.07;1.40;;;8.80;99.90;;;;;;8311276;28;20291;-68
2023/01/12 21:11:36;;;;;;;2.17;1.53;;;8.80;99.90;;;;;;8296904;28;20191;-67
2023/01/12 21:15:37;;;;;;;2.30;1.30;;;8.90;99.90;;;;;;8290477;28;20192;-70
2023/01/12 21:19:38;;;;;;;2.93;1.27;;;8.90;99.90;;;;;;8290519;28;20195;-70
2023/01/12 21:23:39;;;;;;;1.67;1.40;;;8.90;99.90;;;;;;8284977;28;20221;-70
2023/01/12 21:27:40;;;;;;;3.47;1.20;;;9.00;99.90;;;;;;8289814;28;20282;-70
2023/01/12 21:31:41;;;;;;;2.70;1.50;;;8.90;99.90;;;;;;8294882;28;20198;-71
2023/01/12 21:35:42;;;;;;;2.17;1.17;;;8.90;99.90;;;;;;8288543;28;20217;-70
2023/01/12 21:39:43;;;;;;;2.60;1.40;;;8.90;99.90;;;;;;8289156;28;20209;-71
2023/01/12 21:43:48;;;;;;;2.27;1.33;;;8.90;99.90;;;;;;8299261;28;20210;-70
2023/01/12 21:47:49;;;;;;;2.70;1.30;;;8.90;99.90;;;;;;8309484;28;20222;-70
2023/01/12 21:51:50;;;;;;;2.73;1.73;;;8.90;99.90;;;;;;8294451;28;20182;-70
2023/01/12 21:55:56;;;;;;;1.80;1.43;;;8.90;99.90;;;;;;8296571;28;20198;-71
2023/01/12 21:59:56;;;;;;;3.57;1.57;;;8.90;99.90;;;;;;8294298;28;20193;-70
2023/01/12 22:03:57;;;;;;;2.27;1.20;;;8.90;99.90;;;;;;8295016;28;20214;-71
2023/01/12 22:07:58;;;;;;;1.80;1.30;;;9.00;99.90;;;;;;8288641;28;20542;-68
2023/01/12 22:11:59;;;;;;;1.97;1.30;;;9.00;99.90;;;;;;8288876;28;20198;-69
2023/01/12 22:16:10;;;;;;;2.20;1.37;;;9.00;99.90;;;;;;8289290;28;20187;-69
2023/01/12 22:20:12;;;;;;;2.80;1.20;;;8.90;99.90;;;;;;8292573;28;20190;-69
2023/01/12 22:24:13;;;;;;;1.70;1.17;;;8.90;99.90;;;;;;8295884;28;20217;-69
2023/01/12 22:28:14;;;;;;;2.87;0.97;;;8.90;1.00;;;;;;8293886;28;20190;-69
2023/01/12 22:32:15;;;;;;;2.80;1.10;;;8.90;1.00;;;;;;8290992;28;20183;-69
2023/01/12 22:36:16;;;;;;;1.70;1.00;;;8.90;1.00;;;;;;8295756;28;20457;-69
2023/01/12 22:40:17;;;;;;;1.87;1.20;;;8.80;1.00;;;;;;8293913;28;20214;-68
2023/01/12 22:44:18;;;;;;;1.80;1.10;;;8.80;1.00;;;;;;8286574;28;20214;-69
2023/01/12 22:48:19;;;;;;;1.57;0.90;;;8.80;1.00;;;;;;8307579;28;20193;-69
2023/01/12 22:52:20;;;;;;;1.20;1.10;;;8.70;53.30;;;;;;8304879;28;20187;-69
2023/01/12 22:56:21;;;;;;;1.20;0.97;;;8.70;99.90;;;;;;8305816;28;20247;-71